Scottish Airport Reports

Civil airfields updated at H+20 and H+50
RAF airfields updated at H+50 only

EGPD - Aberdeen
Distance from station: NNE 19mi, 31km
Updated: 15/12/2018 16:50
Light rain, Mostly cloudy
Light rain, Mostly cloudy
 Wind from SE
Wind: SE 35 mph , 56 km/h, Gust: 59 mph , 94 km/h
Temperature: 5°C
Wind Chill: -2°C
Dew Point: 1°C
Humidity: 76%
Barometer: 1000 hPa
Summary: Light rain
Clouds: Mostly cloudy
Visibility: 5 miles , 8 km
Cloud details: Mostly cloudy 1900 ft
2018/12/15 16:50 EGPD 151650Z 14030G51KT 8000 -RA BKN019 05/01 Q1000
EGPN - Dundee
Distance from station: SW 41mi, 66km
Updated: 15/12/2018 15:20
NOT Current
Rain, Partly cloudy
Rain, Partly cloudy
 Wind from SE
Wind: SE 31 mph , 50 km/h, Gust: 46 mph , 74 km/h
Temperature: 3°C
Wind Chill: -4°C
Dew Point: 1°C
Humidity: 87%
Barometer: 1000 hPa
Summary: Rain
Clouds: Partly cloudy
Visibility: 5 miles , 8 km
Cloud details: Few Clouds 2100 ft
Partly cloudy 3400 ft
2018/12/15 15:20 EGPN 151520Z 14027G40KT 8000 RA FEW021 SCT034 03/01 Q1000 REPL
 
EGQS - RAF Lossiemouth
Distance from station: NNW 63mi, 102km
Updated: 15/12/2018 16:50
Mostly cloudy
Mostly cloudy
 Wind from SSE
Wind: SSE 35 mph , 56 km/h, Gust: 47 mph , 76 km/h
Temperature: 5°C
Wind Chill: -2°C
Dew Point: 1°C
Humidity: 76%
Barometer: 996 hPa
Clouds: Mostly cloudy
Visibility: 6 miles , 10 km
Cloud details: Partly cloudy 2000 ft
Partly cloudy 2500 ft
Mostly cloudy 14000 ft
2018/12/15 16:50 EGQS 151650Z 15030G41KT 9999 SCT020 SCT025 BKN140 05/01 Q0996 WHT TEMPO BKN025 BLU
EGPE - Inverness
Distance from station: WNW 73mi, 117km
Updated: 15/12/2018 16:50
Few Clouds
Few Clouds
 Wind from ENE
Wind: ENE 15 mph , 24 km/h
Temperature: 4°C
Wind Chill: -1°C
Dew Point: 0°C
Humidity: 75%
Barometer: 994 hPa
Clouds: Few Clouds
Visibility: 6 miles , 10 km
Cloud details: Few Clouds 3200 ft
2018/12/15 16:50 EGPE 151650Z 06013KT 9999 FEW032 04/00 Q0994
 
EGPH - Edinburgh
Distance from station: SSW 77mi, 125km
Updated: 15/12/2018 16:50
Light rain, Mostly cloudy
Light rain, Mostly cloudy
 Wind from ESE
Wind: ESE 23 mph , 37 km/h
Temperature: 2°C
Wind Chill: -4°C
Dew Point: -1°C
Humidity: 81%
Barometer: 994 hPa
Summary: Light rain
Clouds: Mostly cloudy
Visibility: 6 miles , 9 km
Cloud details: Mostly cloudy 1700 ft
2018/12/15 16:50 EGPH 151650Z 12020KT 9000 -RA BKN017TCU 02/M01 Q0994
EGPC - Wick
Distance from station: NNW 107mi, 172km
Updated: 15/12/2018 16:50
Light rain, Overcast
Light rain, Overcast
 Wind from SSE
Wind: SSE 40 mph , 65 km/h, Gust: 55 mph , 89 km/h
Temperature: 6°C
Wind Chill: -1°C
Dew Point: 1°C
Humidity: 71%
Barometer: 998 hPa
Summary: Light rain
Clouds: Overcast
Visibility: 6 miles , 10 km
Cloud details: Mostly cloudy 2200 ft
Overcast 2600 ft
2018/12/15 16:50 EGPC 151650Z AUTO 15035G48KT 9999 -RA BKN022/// OVC026/// 06/01 Q0998
 
EGPF - Glasgow
Distance from station: SW 107mi, 172km
Updated: 15/12/2018 16:50
Light rain, Showers, Hail, Overcast
Light rain, Showers, Hail, Overcast
 Wind from ENE
Wind: ENE 14 mph , 22 km/h
Temperature: 1°C
Wind Chill: -4°C
Dew Point: 1°C
Humidity: 100%
Barometer: 993 hPa
Summary: Light rain, Showers, Hail
Clouds: Overcast
Visibility: 1 mile , 2 km
Cloud details: Overcast 1000 ft
2018/12/15 16:50 EGPF 151650Z 06012KT 2000 -SHRAGR OVC010CB 01/01 Q0993 RERA REDZ
EGPK - Prestwick
Distance from station: SW 130mi, 209km
Updated: 15/12/2018 16:50
Light rain, Showers, Partly cloudy
Light rain, Showers, Partly cloudy
 Wind from SE
Wind: SE 14 mph , 22 km/h, Gust: 26 mph , 43 km/h
Temperature: 3°C
Wind Chill: -2°C
Dew Point: 2°C
Humidity: 93%
Barometer: 991 hPa
Summary: Light rain, Showers
Clouds: Partly cloudy
Visibility: 6 miles , 10 km
Cloud details: Partly cloudy 1500 ft
Partly cloudy 4500 ft
2018/12/15 16:50 EGPK 151650Z 13012G23KT 9999 -SHRA SCT015 SCT045 03/02 Q0991
 
EGPA - Kirkwall, Orkney
Distance from station: N 140mi, 225km
Updated: 15/12/2018 16:50
Mostly cloudy
Mostly cloudy
 Wind from SSE
Wind: SSE 40 mph , 65 km/h, Gust: 54 mph , 87 km/h
Temperature: 6°C
Wind Chill: -1°C
Dew Point: 2°C
Humidity: 76%
Barometer: 999 hPa
Clouds: Mostly cloudy
Visibility: 6 miles , 10 km
Cloud details: Few Clouds 1600 ft
Mostly cloudy 2700 ft
2018/12/15 16:50 EGPA 151650Z 15035G47KT 9999 FEW016 BKN027 06/02 Q0999
EGPO - Stornoway, Outer Hebrides
Distance from station: WNW 169mi, 273km
Updated: 15/12/2018 16:50
Light rain, Mostly cloudy
Light rain, Mostly cloudy
 Wind from SE
Wind: SE 20 mph , 31 km/h
Temperature: 6°C
Wind Chill: 1°C
Dew Point: 4°C
Humidity: 87%
Barometer: 989 hPa
Summary: Light rain
Clouds: Mostly cloudy
Visibility: 6 miles , 10 km
Cloud details: Few Clouds 700 ft
Mostly cloudy 1800 ft
Mostly cloudy 2700 ft
2018/12/15 16:50 EGPO 151650Z 14017KT 9999 -RA FEW007 BKN018 BKN027 06/04 Q0989
 
EGPI - Islay, Inner Hebrides
Distance from station: WSW 172mi, 276km
Updated: 15/12/2018 16:50
Light rain, Overcast
Light rain, Overcast
 Wind from ESE
Wind: ESE 32 mph , 52 km/h, Gust: 45 mph , 72 km/h
Temperature: 5°C
Wind Chill: -2°C
Dew Point: 4°C
Humidity: 93%
Barometer: 986 hPa
Summary: Light rain
Clouds: Overcast
Visibility: 6 miles , 10 km
Cloud details: Overcast 1100 ft
2018/12/15 16:50 EGPI 151650Z AUTO 11028G39KT 090V150 9999 -RA OVC011/// 05/04 Q0986
EGPU - Tiree, Inner Hebrides
Distance from station: W 172mi, 276km
Updated: 15/12/2018 16:50
Rain showers, Mostly cloudy
Rain showers, Mostly cloudy
 Wind from ESE
Wind: ESE 44 mph , 70 km/h, Gust: 56 mph , 91 km/h
Temperature: 5°C
Wind Chill: -2°C
Dew Point: 3°C
Humidity: 87%
Barometer: 984 hPa
Summary: Rain Showers
Clouds: Mostly cloudy
Visibility: 6 miles , 9 km
Cloud details: Mostly cloudy 1100 ft
Mostly cloudy 1600 ft
2018/12/15 16:50 EGPU 151650Z 12038G49KT 9000 SHRA BKN011 BKN016 05/03 Q0984
 
EGPB - Sumburgh, Shetland
Distance from station: NNE 208mi, 332km
Updated: 15/12/2018 16:50
Light rain, Overcast
Light rain, Overcast
 Wind from SSE
Wind: SSE 39 mph , 63 km/h, Gust: 54 mph , 87 km/h
Temperature: 6°C
Wind Chill: -1°C
Dew Point: 1°C
Humidity: 71%
Barometer: 1006 hPa
Summary: Light rain
Clouds: Overcast
Visibility: 6 miles , 9 km
Cloud details: Overcast 2700 ft
2018/12/15 16:50 EGPB 151650Z AUTO 16034G47KT 9000 -RA OVC027/// 06/01 Q1006
EGPM - Scatsa, Shetland
Distance from station: NNE 245mi, 392km
Updated: 15/12/2018 16:50
Mostly cloudy
Mostly cloudy
 Wind from SSE
Wind: SSE 36 mph , 57 km/h, Gust: 54 mph , 87 km/h
Temperature: 5°C
Wind Chill: -2°C
Dew Point: 1°C
Humidity: 76%
Barometer: 1005 hPa
Clouds: Mostly cloudy
Visibility: 6 miles , 10 km
Cloud details: Few Clouds 800 ft
Partly cloudy 1800 ft
Mostly cloudy 3600 ft
2018/12/15 16:50 EGPM 151650Z AUTO 15031G47KT 9999 FEW008/// SCT018/// BKN036/// 05/01 Q1005
-->